Time;durP1;ratioP1;P1;durP2;ratioP2;P2;SDS_P1;SDS_P2;PMS_P1;PMS_P2;Temp;Humidity;BMP_temperature;BMP_pressure;BME280_temperature;BME280_humidity;BME280_pressure;Samples;Min_cycle;Max_cycle;Signal;HPM_P1;HPM_P2
2021/06/26 00:01:56;;;;;;;;;;;27.90;95.00;;;;;;1881147;74;20288;-91
2021/06/26 00:04:26;;;;;;;;;;;28.00;95.20;;;;;;1876493;76;20131;-90
2021/06/26 00:06:56;;;;;;;;;;;28.00;95.10;;;;;;1880069;76;20135;-90
2021/06/26 00:09:26;;;;;;;;;;;28.00;95.00;;;;;;1883068;76;20194;-88
2021/06/26 00:11:55;;;;;;;;;;;28.10;94.80;;;;;;1893666;75;20170;-90
2021/06/26 00:14:25;;;;;;;;;;;28.10;94.60;;;;;;1843689;77;20459;-90
2021/06/26 00:16:57;;;;;;;;;;;28.10;94.60;;;;;;1881417;75;20182;-91
2021/06/26 00:19:26;;;;;;;;;;;28.20;94.50;;;;;;1880675;76;20205;-90
2021/06/26 00:21:56;;;;;;;;;;;28.20;94.40;;;;;;1888591;75;20267;-90
2021/06/26 00:24:29;;;;;;;;;;;28.30;94.40;;;;;;1882441;75;20133;-90
2021/06/26 00:26:57;;;;;;;;;;;28.30;94.60;;;;;;1875947;76;20453;-90
2021/06/26 00:29:26;;;;;;;;;;;28.30;94.20;;;;;;1876584;76;20442;-90
2021/06/26 00:31:56;;;;;;;;;;;28.40;94.30;;;;;;1887034;76;20213;-87
2021/06/26 00:34:25;;;;;;;;;;;28.40;94.30;;;;;;1893698;76;20206;-89
2021/06/26 00:36:55;;;;;;;;;;;28.40;94.10;;;;;;1883489;76;20187;-90
2021/06/26 00:39:24;;;;;;;;;;;28.50;94.60;;;;;;1875898;76;20160;-90
2021/06/26 00:41:54;;;;;;;;;;;28.50;93.90;;;;;;1881944;75;20233;-89
2021/06/26 00:44:28;;;;;;;;;;;28.50;93.40;;;;;;1881580;75;20242;-89
2021/06/26 00:46:58;;;;;;;;;;;28.60;93.60;;;;;;1878455;76;20198;-91
2021/06/26 00:49:31;;;;;;;;;;;28.60;93.60;;;;;;1863489;76;20250;-90
2021/06/26 00:52:01;;;;;;;;;;;28.70;93.20;;;;;;1887725;75;20162;-90
2021/06/26 00:54:32;;;;;;;;;;;28.70;93.10;;;;;;1839188;78;20164;-90
2021/06/26 00:57:02;;;;;;;;;;;28.80;93.10;;;;;;1827340;77;20136;-90
2021/06/26 00:59:31;;;;;;;;;;;28.80;93.30;;;;;;1838839;77;20478;-92
2021/06/26 01:02:03;;;;;;;;;;;28.90;93.00;;;;;;1795602;78;20430;-91
2021/06/26 01:04:32;;;;;;;;;;;28.90;92.80;;;;;;1849404;77;20237;-91
2021/06/26 01:07:02;;;;;;;;;;;29.00;92.70;;;;;;1885421;75;20247;-91
2021/06/26 01:09:32;;;;;;;;;;;29.00;92.80;;;;;;1933233;73;20211;-91
2021/06/26 01:12:02;;;;;;;;;;;29.10;92.80;;;;;;1902940;74;20246;-90
2021/06/26 01:14:32;;;;;;;;;;;29.10;92.70;;;;;;1936312;73;20124;-78
2021/06/26 01:17:03;;;;;;;;;;;29.20;92.60;;;;;;1926959;73;20280;-78
2021/06/26 01:19:33;;;;;;;;;;;29.30;92.60;;;;;;1927395;73;20162;-77
2021/06/26 01:22:06;;;;;;;;;;;29.40;92.10;;;;;;1942209;73;20493;-78
2021/06/26 01:24:36;;;;;;;;;;;29.50;91.80;;;;;;1894128;73;20595;-77
2021/06/26 01:27:05;;;;;;;;;;;29.50;91.70;;;;;;1926784;73;20158;-77
2021/06/26 01:29:35;;;;;;;;;;;29.60;91.40;;;;;;1932123;73;20509;-78
2021/06/26 01:32:06;;;;;;;;;;;29.70;91.50;;;;;;1939894;73;20585;-79
2021/06/26 01:34:36;;;;;;;;;;;29.80;91.40;;;;;;1928238;73;20219;-78
2021/06/26 01:37:06;;;;;;;;;;;29.80;91.10;;;;;;1921753;73;20216;-77
2021/06/26 01:39:36;;;;;;;;;;;29.90;90.90;;;;;;1932470;73;20225;-78
2021/06/26 01:42:07;;;;;;;;;;;29.90;90.80;;;;;;1889631;75;20325;-76
2021/06/26 01:44:37;;;;;;;;;;;29.90;91.00;;;;;;1853638;76;20194;-77
2021/06/26 01:47:07;;;;;;;;;;;29.90;90.90;;;;;;1910341;73;20468;-77
2021/06/26 01:49:37;;;;;;;;;;;29.90;90.50;;;;;;1916595;73;20218;-78
2021/06/26 01:52:09;;;;;;;;;;;30.00;90.70;;;;;;1901946;73;20255;-75
2021/06/26 01:54:52;;;;;;;;;;;30.10;90.60;;;;;;1914275;73;20475;-76
2021/06/26 01:57:21;;;;;;;;;;;30.20;90.40;;;;;;1915373;73;20541;-77
2021/06/26 01:59:52;;;;;;;;;;;30.20;90.40;;;;;;1905187;75;20185;-77
2021/06/26 02:02:21;;;;;;;;;;;30.20;90.40;;;;;;1912472;74;20227;-76
2021/06/26 02:04:51;;;;;;;;;;;30.30;90.20;;;;;;1877030;74;20200;-77
2021/06/26 02:07:21;;;;;;;;;;;30.30;90.50;;;;;;1880381;76;20185;-77
2021/06/26 02:09:51;;;;;;;;;;;30.40;90.20;;;;;;1873783;76;20163;-76
2021/06/26 02:12:20;;;;;;;;;;;30.50;90.00;;;;;;1881601;75;20240;-77
2021/06/26 02:14:53;;;;;;;;;;;30.60;89.30;;;;;;1874914;76;20190;-78
2021/06/26 02:17:22;;;;;;;;;;;30.70;89.00;;;;;;1880964;75;20206;-76
2021/06/26 02:19:52;;;;;;;;;;;30.70;88.60;;;;;;1879789;76;20184;-76
2021/06/26 02:22:21;;;;;;;;;;;30.80;88.40;;;;;;1877959;76;20178;-77
2021/06/26 02:24:51;;;;;;;;;;;30.90;87.90;;;;;;1878973;76;20228;-77
2021/06/26 02:27:21;;;;;;;;;;;31.00;87.60;;;;;;1808132;79;20213;-78
2021/06/26 02:29:54;;;;;;;;;;;31.10;87.00;;;;;;1844726;77;20117;-78
2021/06/26 02:32:23;;;;;;;;;;;31.30;87.00;;;;;;1802608;79;20137;-79
2021/06/26 02:34:54;;;;;;;;;;;31.40;86.60;;;;;;1869897;75;20393;-78
2021/06/26 02:37:24;;;;;;;;;;;31.50;85.50;;;;;;1863479;75;20216;-79
2021/06/26 02:39:53;;;;;;;;;;;31.60;84.80;;;;;;1872282;75;20163;-79
2021/06/26 02:42:23;;;;;;;;;;;31.70;85.70;;;;;;1880155;75;20575;-79
2021/06/26 02:44:54;;;;;;;;;;;31.80;84.30;;;;;;1884915;76;20442;-80
2021/06/26 02:47:24;;;;;;;;;;;31.90;84.40;;;;;;1870289;75;20820;-79
2021/06/26 02:49:54;;;;;;;;;;;32.00;84.00;;;;;;1882950;75;20323;-76
2021/06/26 02:52:23;;;;;;;;;;;32.20;82.70;;;;;;1880407;76;20266;-77
2021/06/26 02:54:53;;;;;;;;;;;32.10;83.40;;;;;;1875647;76;20174;-77
2021/06/26 02:57:22;;;;;;;;;;;32.20;83.50;;;;;;1873098;76;20208;-79
2021/06/26 02:59:53;;;;;;;;;;;32.20;83.20;;;;;;1882239;75;20178;-79
2021/06/26 03:02:26;;;;;;;;;;;32.30;83.70;;;;;;1869670;75;20430;-78
2021/06/26 03:04:55;;;;;;;;;;;32.40;82.00;;;;;;1875010;75;20336;-78
2021/06/26 03:07:25;;;;;;;;;;;32.40;82.20;;;;;;1880923;75;20230;-79
2021/06/26 03:09:54;;;;;;;;;;;32.40;82.30;;;;;;1893231;76;20193;-80
2021/06/26 03:12:24;;;;;;;;;;;32.50;82.20;;;;;;1883423;75;20155;-79
2021/06/26 03:14:54;;;;;;;;;;;32.60;80.40;;;;;;1893046;76;20218;-79
2021/06/26 03:17:24;;;;;;;;;;;32.60;80.60;;;;;;1888234;76;20239;-79
2021/06/26 03:19:54;;;;;;;;;;;32.60;80.30;;;;;;1883100;75;20247;-78
2021/06/26 03:22:24;;;;;;;;;;;32.60;80.10;;;;;;1880411;76;20218;-78
2021/06/26 03:24:54;;;;;;;;;;;32.60;80.00;;;;;;1867772;76;20236;-78
2021/06/26 03:27:28;;;;;;;;;;;32.60;80.90;;;;;;1864940;76;20129;-78
2021/06/26 03:29:57;;;;;;;;;;;32.70;80.00;;;;;;1865267;76;20271;-76
2021/06/26 03:32:27;;;;;;;;;;;32.70;80.20;;;;;;1880327;75;20131;-76
2021/06/26 03:34:58;;;;;;;;;;;32.90;80.60;;;;;;1878701;75;20163;-79
2021/06/26 03:37:28;;;;;;;;;;;33.00;78.40;;;;;;1872726;75;20506;-76
2021/06/26 03:40:04;;;;;;;;;;;33.00;78.30;;;;;;1869881;75;20209;-77
2021/06/26 03:42:34;;;;;;;;;;;33.00;78.00;;;;;;1883949;75;20135;-76
2021/06/26 03:45:04;;;;;;;;;;;33.00;78.10;;;;;;1879026;76;20121;-76
2021/06/26 03:47:36;;;;;;;;;;;32.90;79.20;;;;;;1870072;76;20211;-77
2021/06/26 03:50:07;;;;;;;;;;;33.00;79.00;;;;;;1883890;75;20452;-78
2021/06/26 03:52:37;;;;;;;;;;;33.00;78.50;;;;;;1869927;76;20178;-79
2021/06/26 03:55:10;;;;;;;;;;;33.00;77.50;;;;;;1876853;76;20230;-81
2021/06/26 03:57:40;;;;;;;;;;;33.00;79.30;;;;;;1882057;76;20122;-79
2021/06/26 04:00:26;;;;;;;;;;;33.00;79.10;;;;;;1877756;76;20196;-75
2021/06/26 04:03:05;;;;;;;;;;;33.00;79.10;;;;;;1886117;75;20210;-79
2021/06/26 04:05:35;;;;;;;;;;;33.20;78.00;;;;;;1875739;75;20186;-77
2021/06/26 04:08:08;;;;;;;;;;;33.30;78.70;;;;;;1845704;77;20208;-78
2021/06/26 04:10:38;;;;;;;;;;;33.30;78.40;;;;;;1814906;77;20163;-78
2021/06/26 04:13:11;;;;;;;;;;;33.40;77.70;;;;;;1832500;77;20206;-77
2021/06/26 04:15:42;;;;;;;;;;;33.40;77.90;;;;;;1824419;77;20166;-78
2021/06/26 04:18:11;;;;;;;;;;;33.40;78.40;;;;;;1831107;77;20268;-78
2021/06/26 04:20:41;;;;;;;;;;;33.30;77.10;;;;;;1879060;75;20469;-76
2021/06/26 04:23:11;;;;;;;;;;;33.30;75.90;;;;;;1874047;75;20202;-77
2021/06/26 04:25:45;;;;;;;;;;;33.30;76.40;;;;;;1879123;75;20184;-77
2021/06/26 04:28:15;;;;;;;;;;;33.40;77.20;;;;;;1870070;75;20182;-77
2021/06/26 04:30:44;;;;;;;;;;;33.40;77.10;;;;;;1873638;75;20225;-77
2021/06/26 04:33:15;;;;;;;;;;;33.40;75.00;;;;;;1871412;75;20226;-77
2021/06/26 04:35:45;;;;;;;;;;;33.40;75.50;;;;;;1884743;76;20136;-78
2021/06/26 04:38:24;;;;;;;;;;;33.30;76.10;;;;;;1885180;76;20453;-77
2021/06/26 04:40:51;;;;;;;;;;;33.20;76.10;;;;;;1883548;74;20182;-77
2021/06/26 04:43:22;;;;;;;;;;;33.20;76.30;;;;;;1821856;78;20123;-78
2021/06/26 04:45:52;;;;;;;;;;;33.20;77.20;;;;;;1820595;78;20217;-79
2021/06/26 04:48:27;;;;;;;;;;;33.10;77.30;;;;;;1891286;75;20213;-78
2021/06/26 04:50:54;;;;;;;;;;;33.30;76.00;;;;;;1847060;77;20137;-77
2021/06/26 04:53:44;;;;;;;;;;;33.40;75.30;;;;;;1809901;79;20166;-78
2021/06/26 04:56:15;;;;;;;;;;;33.50;75.30;;;;;;1829751;78;20193;-76
2021/06/26 04:58:44;;;;;;;;;;;33.50;73.00;;;;;;1817745;79;20185;-76
2021/06/26 05:01:14;;;;;;;;;;;33.50;74.50;;;;;;1867440;76;20466;-77
2021/06/26 05:03:44;;;;;;;;;;;33.50;75.10;;;;;;1875070;76;20237;-77
2021/06/26 05:06:16;;;;;;;;;;;33.60;74.10;;;;;;1865105;76;20173;-77
2021/06/26 05:08:47;;;;;;;;;;;33.70;71.00;;;;;;1872114;76;20199;-76
2021/06/26 05:11:17;;;;;;;;;;;33.80;70.80;;;;;;1873132;76;20223;-77
2021/06/26 05:13:47;;;;;;;;;;;33.80;70.70;;;;;;1870474;76;20240;-77
2021/06/26 05:16:16;;;;;;;;;;;33.90;71.80;;;;;;1868853;76;20180;-76
2021/06/26 05:18:46;;;;;;;;;;;33.90;70.60;;;;;;1876528;76;20121;-78
2021/06/26 05:21:16;;;;;;;;;;;33.90;69.40;;;;;;1880984;76;20164;-77
2021/06/26 05:23:45;;;;;;;;;;;34.00;69.80;;;;;;1881588;76;20200;-77
2021/06/26 05:26:15;;;;;;;;;;;34.10;70.30;;;;;;1871910;76;20459;-77
2021/06/26 05:28:44;;;;;;;;;;;34.20;69.90;;;;;;1877533;76;20196;-76
2021/06/26 05:31:14;;;;;;;;;;;34.20;71.90;;;;;;1880054;75;20518;-77
2021/06/26 05:33:45;;;;;;;;;;;34.30;68.20;;;;;;1876507;76;20133;-76
2021/06/26 05:36:14;;;;;;;;;;;34.40;65.80;;;;;;1869462;76;20250;-76
2021/06/26 05:38:44;;;;;;;;;;;34.30;65.70;;;;;;1874319;76;20129;-76
2021/06/26 05:41:14;;;;;;;;;;;34.30;66.30;;;;;;1881916;76;20208;-77
2021/06/26 05:43:44;;;;;;;;;;;34.20;66.50;;;;;;1879805;75;20227;-77
2021/06/26 05:46:14;;;;;;;;;;;34.30;68.50;;;;;;1882221;76;20226;-76
2021/06/26 05:48:44;;;;;;;;;;;34.30;68.10;;;;;;1872110;76;20192;-77
2021/06/26 05:51:17;;;;;;;;;;;34.40;69.70;;;;;;1870869;76;20205;-79
2021/06/26 05:53:45;;;;;;;;;;;34.40;67.60;;;;;;1863653;76;20204;-78
2021/06/26 05:56:15;;;;;;;;;;;34.40;68.30;;;;;;1898161;75;20197;-77
2021/06/26 05:58:45;;;;;;;;;;;34.30;66.40;;;;;;1900103;74;20133;-79
2021/06/26 06:01:15;;;;;;;;;;;34.30;65.10;;;;;;1869148;75;20191;-78
2021/06/26 06:03:47;;;;;;;;;;;34.20;65.50;;;;;;1874320;76;20166;-77
2021/06/26 06:06:16;;;;;;;;;;;34.20;63.30;;;;;;1885910;75;20226;-78
2021/06/26 06:08:46;;;;;;;;;;;34.20;64.20;;;;;;1870039;76;20207;-77
2021/06/26 06:11:24;;;;;;;;;;;34.30;62.70;;;;;;1886568;75;20512;-76
2021/06/26 06:13:54;;;;;;;;;;;34.30;62.10;;;;;;1905267;74;20187;-76
2021/06/26 06:16:24;;;;;;;;;;;34.30;63.50;;;;;;1917604;74;20440;-77
2021/06/26 06:18:54;;;;;;;;;;;34.30;64.50;;;;;;1901591;74;20191;-75
2021/06/26 06:21:25;;;;;;;;;;;34.40;65.30;;;;;;1892536;75;20179;-75
2021/06/26 06:23:55;;;;;;;;;;;34.40;64.80;;;;;;1900210;74;20216;-78
2021/06/26 06:26:25;;;;;;;;;;;34.40;65.30;;;;;;1902444;74;20540;-75
2021/06/26 06:28:55;;;;;;;;;;;34.30;65.10;;;;;;1903452;74;20227;-77
2021/06/26 06:31:24;;;;;;;;;;;34.30;65.30;;;;;;1904649;74;20195;-77
2021/06/26 06:33:54;;;;;;;;;;;34.40;64.20;;;;;;1912633;74;20175;-77
2021/06/26 06:36:24;;;;;;;;;;;34.40;63.20;;;;;;1904706;74;20449;-77
2021/06/26 06:38:55;;;;;;;;;;;34.50;63.70;;;;;;1895586;74;20183;-77
2021/06/26 06:41:25;;;;;;;;;;;34.50;63.40;;;;;;1902822;74;20191;-78
2021/06/26 06:43:54;;;;;;;;;;;34.50;64.20;;;;;;1899519;74;20175;-78
2021/06/26 06:46:24;;;;;;;;;;;34.40;64.40;;;;;;1890419;74;20195;-78
2021/06/26 06:48:54;;;;;;;;;;;34.30;64.50;;;;;;1877160;74;20226;-76
2021/06/26 06:51:24;;;;;;;;;;;34.20;63.50;;;;;;1910721;74;20193;-75
2021/06/26 06:53:55;;;;;;;;;;;34.20;64.10;;;;;;1900212;74;20218;-76
2021/06/26 06:56:25;;;;;;;;;;;34.20;65.00;;;;;;1905616;74;20146;-76
2021/06/26 06:58:55;;;;;;;;;;;34.20;64.10;;;;;;1903152;74;20155;-77
2021/06/26 07:01:25;;;;;;;;;;;34.20;64.60;;;;;;1900702;74;20207;-77
2021/06/26 07:03:55;;;;;;;;;;;34.30;66.40;;;;;;1890162;76;20216;-76
2021/06/26 07:06:24;;;;;;;;;;;34.30;65.00;;;;;;1908111;74;20221;-77
2021/06/26 07:08:54;;;;;;;;;;;34.20;65.40;;;;;;1900547;74;20191;-78
2021/06/26 07:11:24;;;;;;;;;;;34.20;67.20;;;;;;1905097;74;20193;-76
2021/06/26 07:13:54;;;;;;;;;;;34.10;66.00;;;;;;1893768;74;20529;-76
2021/06/26 07:16:23;;;;;;;;;;;34.10;66.20;;;;;;1904039;74;20231;-77
2021/06/26 07:18:53;;;;;;;;;;;34.10;66.20;;;;;;1892420;74;20237;-76
2021/06/26 07:21:23;;;;;;;;;;;34.00;66.80;;;;;;1894335;74;20161;-76
2021/06/26 07:23:53;;;;;;;;;;;34.00;66.90;;;;;;1908697;74;20220;-76
2021/06/26 07:26:24;;;;;;;;;;;34.00;67.30;;;;;;1921621;74;20181;-76
2021/06/26 07:28:53;;;;;;;;;;;34.00;67.40;;;;;;1910098;74;20301;-77
2021/06/26 07:31:23;;;;;;;;;;;34.10;66.20;;;;;;1907034;74;20252;-76
2021/06/26 07:33:52;;;;;;;;;;;34.10;65.40;;;;;;1900952;74;20230;-75
2021/06/26 07:36:22;;;;;;;;;;;34.10;65.90;;;;;;1904967;74;20404;-76
2021/06/26 07:38:53;;;;;;;;;;;34.00;65.30;;;;;;1906489;74;20473;-75
2021/06/26 07:41:22;;;;;;;;;;;34.00;64.50;;;;;;1905105;74;20200;-77
2021/06/26 07:43:52;;;;;;;;;;;34.00;64.50;;;;;;1898526;74;20219;-76
2021/06/26 07:46:21;;;;;;;;;;;33.90;65.50;;;;;;1900668;74;20224;-77
2021/06/26 07:48:52;;;;;;;;;;;33.90;65.10;;;;;;1913967;74;20182;-75
2021/06/26 07:51:22;;;;;;;;;;;33.90;65.90;;;;;;1908063;74;20197;-76
2021/06/26 07:53:52;;;;;;;;;;;33.90;65.90;;;;;;1818637;79;20204;-75
2021/06/26 07:56:22;;;;;;;;;;;33.90;66.30;;;;;;1814774;77;20223;-77
2021/06/26 07:58:52;;;;;;;;;;;34.00;65.60;;;;;;1818611;77;20187;-77
2021/06/26 08:01:21;;;;;;;;;;;34.00;65.40;;;;;;1866041;76;20142;-76
2021/06/26 08:03:51;;;;;;;;;;;34.00;64.60;;;;;;1856884;76;20136;-76
2021/06/26 08:06:21;;;;;;;;;;;34.10;64.80;;;;;;1870190;76;20388;-77
2021/06/26 08:08:51;;;;;;;;;;;34.20;66.40;;;;;;1863587;77;20198;-76
2021/06/26 08:11:21;;;;;;;;;;;34.30;65.50;;;;;;1876655;76;20211;-78
2021/06/26 08:13:52;;;;;;;;;;;34.40;65.60;;;;;;1817426;79;20137;-77
2021/06/26 08:16:22;;;;;;;;;;;34.50;64.70;;;;;;1828663;77;20216;-77
2021/06/26 08:18:54;;;;;;;;;;;34.60;63.90;;;;;;1867780;76;20217;-76
2021/06/26 08:21:26;;;;;;;;;;;34.50;64.80;;;;;;1854373;76;20217;-76
2021/06/26 08:23:57;;;;;;;;;;;34.40;63.00;;;;;;1864049;76;20194;-77
2021/06/26 08:26:30;;;;;;;;;;;34.40;65.90;;;;;;1855476;76;20135;-78
2021/06/26 08:29:00;;;;;;;;;;;34.30;63.50;;;;;;1849964;76;20198;-78
2021/06/26 08:31:32;;;;;;;;;;;34.30;64.00;;;;;;1870601;76;20192;-77
2021/06/26 08:34:02;;;;;;;;;;;34.20;65.20;;;;;;1869639;75;20204;-76
2021/06/26 08:36:32;;;;;;;;;;;34.20;65.30;;;;;;1850149;76;20183;-78
2021/06/26 08:39:05;;;;;;;;;;;34.20;64.00;;;;;;1870194;76;20178;-77
2021/06/26 08:41:40;;;;;;;;;;;34.30;65.90;;;;;;1835808;78;20197;-76
2021/06/26 08:44:06;;;;;;;;;;;34.20;64.30;;;;;;1837482;78;20217;-77
2021/06/26 08:46:37;;;;;;;;;;;34.30;64.60;;;;;;1831889;78;20170;-80
2021/06/26 08:49:07;;;;;;;;;;;34.40;63.60;;;;;;1831460;78;20240;-78
2021/06/26 08:51:37;;;;;;;;;;;34.40;63.40;;;;;;1828598;78;20281;-77
2021/06/26 08:54:08;;;;;;;;;;;34.40;62.50;;;;;;1838552;78;20201;-77
2021/06/26 08:56:38;;;;;;;;;;;34.40;63.70;;;;;;1819965;78;20189;-78
2021/06/26 08:59:09;;;;;;;;;;;34.40;63.60;;;;;;1779453;79;20169;-78
2021/06/26 09:01:40;;;;;;;;;;;34.40;62.70;;;;;;1785578;79;20193;-78
2021/06/26 09:04:11;;;;;;;;;;;34.40;63.30;;;;;;1785551;79;20247;-79
2021/06/26 09:06:43;;;;;;;;;;;34.40;63.70;;;;;;1781939;79;20207;-78
2021/06/26 09:09:14;;;;;;;;;;;34.40;64.20;;;;;;1834461;77;20158;-79
2021/06/26 09:11:44;;;;;;;;;;;34.40;63.20;;;;;;1834712;77;20162;-78
2021/06/26 09:14:15;;;;;;;;;;;34.40;62.70;;;;;;1824135;78;20188;-77
2021/06/26 09:16:46;;;;;;;;;;;34.40;62.10;;;;;;1823732;78;20263;-77
2021/06/26 09:19:16;;;;;;;;;;;34.40;61.50;;;;;;1822210;78;20271;-76
2021/06/26 09:21:47;;;;;;;;;;;34.40;61.70;;;;;;1815882;77;20246;-77
2021/06/26 09:24:18;;;;;;;;;;;34.30;62.00;;;;;;1821702;77;20182;-77
2021/06/26 09:26:48;;;;;;;;;;;34.30;62.90;;;;;;1821370;77;20232;-76
2021/06/26 09:29:18;;;;;;;;;;;34.30;62.00;;;;;;1824794;77;20499;-77
2021/06/26 09:31:50;;;;;;;;;;;34.30;62.30;;;;;;1829845;77;20158;-79
2021/06/26 09:34:22;;;;;;;;;;;34.30;63.50;;;;;;1823971;77;20194;-77
2021/06/26 09:36:53;;;;;;;;;;;34.20;62.90;;;;;;1791713;79;20182;-78
2021/06/26 09:39:24;;;;;;;;;;;34.30;61.50;;;;;;1828323;77;20267;-76
2021/06/26 09:41:54;;;;;;;;;;;34.30;62.60;;;;;;1827390;77;20190;-76
2021/06/26 09:44:23;;;;;;;;;;;34.30;62.10;;;;;;1826759;77;20204;-76
2021/06/26 09:46:54;;;;;;;;;;;34.30;60.80;;;;;;1832316;77;20214;-76
2021/06/26 09:49:25;;;;;;;;;;;34.30;61.20;;;;;;1824957;77;20238;-78
2021/06/26 09:51:56;;;;;;;;;;;34.30;60.80;;;;;;1823440;77;20207;-77
2021/06/26 09:54:27;;;;;;;;;;;34.30;63.20;;;;;;1811951;77;20137;-76
2021/06/26 09:56:57;;;;;;;;;;;34.30;61.60;;;;;;1810959;78;20264;-76
2021/06/26 09:59:28;;;;;;;;;;;34.20;61.30;;;;;;1792312;79;20204;-77
2021/06/26 10:01:59;;;;;;;;;;;34.20;61.30;;;;;;1820452;78;20215;-76
2021/06/26 10:04:32;;;;;;;;;;;34.20;61.30;;;;;;1812604;78;20546;-77
2021/06/26 10:07:05;;;;;;;;;;;34.20;63.50;;;;;;1823838;78;20239;-77
2021/06/26 10:09:35;;;;;;;;;;;34.20;62.40;;;;;;1806908;78;20278;-76
2021/06/26 10:12:05;;;;;;;;;;;34.20;62.60;;;;;;1807543;79;20553;-75
2021/06/26 10:14:35;;;;;;;;;;;34.20;63.30;;;;;;1808706;79;20196;-76
2021/06/26 10:17:05;;;;;;;;;;;34.20;62.50;;;;;;1808882;79;20216;-77
2021/06/26 10:19:36;;;;;;;;;;;34.20;62.50;;;;;;1808703;79;20200;-77
2021/06/26 10:22:05;;;;;;;;;;;34.10;62.70;;;;;;1805677;79;20229;-77
2021/06/26 10:24:35;;;;;;;;;;;34.10;62.60;;;;;;1810760;79;20244;-78
2021/06/26 10:27:06;;;;;;;;;;;34.10;63.30;;;;;;1808112;79;20533;-78
2021/06/26 10:29:43;;;;;;;;;;;34.10;63.00;;;;;;1804460;78;20181;-77
2021/06/26 10:32:14;;;;;;;;;;;34.00;63.70;;;;;;1785662;79;20235;-78
2021/06/26 10:34:46;;;;;;;;;;;34.00;63.90;;;;;;1796824;79;20468;-77
2021/06/26 10:37:19;;;;;;;;;;;34.00;63.70;;;;;;1804722;78;20267;-77
2021/06/26 10:39:52;;;;;;;;;;;33.90;63.70;;;;;;1803988;78;20151;-78
2021/06/26 10:42:23;;;;;;;;;;;33.90;64.20;;;;;;1803180;78;20219;-78
2021/06/26 10:44:54;;;;;;;;;;;33.80;64.20;;;;;;1789835;79;20199;-77
2021/06/26 10:47:27;;;;;;;;;;;33.80;64.70;;;;;;1778548;79;20132;-78
2021/06/26 10:49:58;;;;;;;;;;;33.70;65.80;;;;;;1827924;76;20168;-78
2021/06/26 10:52:28;;;;;;;;;;;33.70;65.30;;;;;;1847148;76;20472;-77
2021/06/26 10:55:02;;;;;;;;;;;33.70;65.80;;;;;;1849996;76;20214;-77
2021/06/26 10:57:31;;;;;;;;;;;33.60;65.80;;;;;;1856065;76;20238;-78
2021/06/26 11:00:02;;;;;;;;;;;33.50;66.00;;;;;;1850126;76;20582;-78
2021/06/26 11:02:33;;;;;;;;;;;33.50;68.20;;;;;;1857853;76;20221;-76
2021/06/26 11:05:03;;;;;;;;;;;33.20;69.20;;;;;;1843135;76;20123;-77
2021/06/26 11:07:33;;;;;;;;;;;32.70;70.40;;;;;;1836197;76;20249;-77
2021/06/26 11:10:04;;;;;;;;;;;32.20;73.10;;;;;;1844154;77;20174;-77
2021/06/26 11:12:35;;;;;;;;;;;31.70;74.20;;;;;;1844805;76;20209;-76
2021/06/26 11:15:06;;;;;;;;;;;31.10;73.60;;;;;;1849069;76;20221;-77
2021/06/26 11:17:39;;;;;;;;;;;30.50;80.40;;;;;;1843154;77;20198;-77
2021/06/26 11:20:10;;;;;;;;;;;29.80;83.40;;;;;;1791285;79;20153;-77
2021/06/26 11:22:44;;;;;;;;;;;29.20;86.50;;;;;;1855503;76;20178;-77
2021/06/26 11:25:14;;;;;;;;;;;28.60;89.10;;;;;;1857390;76;20236;-77
2021/06/26 11:27:44;;;;;;;;;;;28.10;90.50;;;;;;1853246;76;20201;-79
2021/06/26 11:30:15;;;;;;;;;;;27.80;90.50;;;;;;1856584;76;20125;-77
2021/06/26 11:32:47;;;;;;;;;;;27.70;91.10;;;;;;1869451;76;20120;-78
2021/06/26 11:35:17;;;;;;;;;;;27.60;92.30;;;;;;1872252;76;20125;-77
2021/06/26 11:37:48;;;;;;;;;;;27.70;93.60;;;;;;1879046;76;20288;-78
2021/06/26 11:40:19;;;;;;;;;;;27.70;95.70;;;;;;1853922;76;20161;-77
2021/06/26 11:42:53;;;;;;;;;;;27.60;96.60;;;;;;1831653;76;20198;-77
2021/06/26 11:45:22;;;;;;;;;;;27.50;96.10;;;;;;1847081;76;20198;-77
2021/06/26 11:47:53;;;;;;;;;;;27.40;97.20;;;;;;1841189;76;20213;-78
2021/06/26 11:50:23;;;;;;;;;;;27.20;97.50;;;;;;1842972;77;20138;-79
2021/06/26 11:52:54;;;;;;;;;;;27.10;97.20;;;;;;1845943;76;20204;-77
2021/06/26 11:55:24;;;;;;;;;;;27.10;98.20;;;;;;1846766;76;20121;-77
2021/06/26 11:57:54;;;;;;;;;;;27.20;96.90;;;;;;1859796;75;20185;-78
2021/06/26 12:00:23;;;;;;;;;;;27.30;98.20;;;;;;1856932;76;20188;-77
2021/06/26 12:02:53;;;;;;;;;;;27.30;98.80;;;;;;1868090;76;20452;-78
2021/06/26 12:05:23;;;;;;;;;;;27.40;99.20;;;;;;1862382;76;20498;-78
2021/06/26 12:07:54;;;;;;;;;;;27.40;99.00;;;;;;1867665;76;20219;-78
2021/06/26 12:10:24;;;;;;;;;;;27.50;98.70;;;;;;1830495;78;20369;-77
2021/06/26 12:12:54;;;;;;;;;;;27.60;97.80;;;;;;1821786;78;20618;-77
2021/06/26 12:15:24;;;;;;;;;;;27.60;97.00;;;;;;1830738;78;20193;-78
2021/06/26 12:17:55;;;;;;;;;;;27.50;97.00;;;;;;1828309;78;20616;-77
2021/06/26 12:20:26;;;;;;;;;;;27.40;96.00;;;;;;1837999;77;20127;-78
2021/06/26 12:22:58;;;;;;;;;;;27.20;96.30;;;;;;1872301;76;20177;-77
2021/06/26 12:25:29;;;;;;;;;;;27.20;96.90;;;;;;1868341;76;20212;-77
2021/06/26 12:28:00;;;;;;;;;;;27.10;98.20;;;;;;1872037;76;20176;-77
2021/06/26 12:30:30;;;;;;;;;;;27.10;98.50;;;;;;1863333;76;20372;-77
2021/06/26 12:33:02;;;;;;;;;;;27.10;98.70;;;;;;1869078;75;20212;-79
2021/06/26 12:35:32;;;;;;;;;;;27.10;98.30;;;;;;1871274;76;20198;-77
2021/06/26 12:38:03;;;;;;;;;;;27.20;98.00;;;;;;1866782;76;20182;-92
2021/06/26 12:40:34;;;;;;;;;;;27.30;97.50;;;;;;1866922;75;20248;-92
2021/06/26 12:43:06;;;;;;;;;;;27.40;97.60;;;;;;1861441;75;20481;-92
2021/06/26 12:45:50;;;;;;;;;;;27.50;97.90;;;;;;1866265;76;20177;-89
2021/06/26 12:48:27;;;;;;;;;;;27.60;97.90;;;;;;1865807;75;20173;-92
2021/06/26 12:51:06;;;;;;;;;;;27.70;97.40;;;;;;1865914;76;20219;-92
2021/06/26 12:53:30;;;;;;;;;;;27.70;97.60;;;;;;1859107;76;20231;-92
2021/06/26 12:56:01;;;;;;;;;;;27.70;97.60;;;;;;1871071;75;20493;-92
2021/06/26 12:58:31;;;;;;;;;;;27.70;97.40;;;;;;1862024;76;20128;-91
2021/06/26 13:01:00;;;;;;;;;;;27.70;98.50;;;;;;1829533;77;20229;-90
2021/06/26 13:03:32;;;;;;;;;;;27.80;97.90;;;;;;1821651;76;20161;-93
2021/06/26 13:06:02;;;;;;;;;;;27.70;98.00;;;;;;1824262;78;20129;-93
2021/06/26 13:08:34;;;;;;;;;;;27.70;97.70;;;;;;1820226;78;20240;-92
2021/06/26 13:11:03;;;;;;;;;;;27.70;98.00;;;;;;1824373;76;20210;-93
2021/06/26 13:13:33;;;;;;;;;;;27.70;98.00;;;;;;1827567;77;20221;-92
2021/06/26 13:16:05;;;;;;;;;;;27.70;98.00;;;;;;1822781;77;20231;-90
2021/06/26 13:18:35;;;;;;;;;;;27.60;98.50;;;;;;1826195;78;20369;-92
2021/06/26 13:21:06;;;;;;;;;;;27.70;98.70;;;;;;1826735;78;20135;-89
2021/06/26 13:23:36;;;;;;;;;;;27.60;98.80;;;;;;1830017;76;20198;-91
2021/06/26 13:26:05;;;;;;;;;;;27.60;98.20;;;;;;1830695;78;20503;-90
2021/06/26 13:28:35;;;;;;;;;;;27.60;98.00;;;;;;1826937;78;20212;-92
2021/06/26 13:31:05;;;;;;;;;;;27.60;97.60;;;;;;1833475;77;20210;-93
2021/06/26 13:33:34;;;;;;;;;;;27.50;97.10;;;;;;1837538;78;20471;-91
2021/06/26 13:36:05;;;;;;;;;;;27.60;98.10;;;;;;1839538;78;20261;-93
2021/06/26 13:38:37;;;;;;;;;;;27.60;98.00;;;;;;1834913;78;20190;-93
2021/06/26 13:41:07;;;;;;;;;;;27.50;97.60;;;;;;1833057;76;20219;-92
2021/06/26 13:43:37;;;;;;;;;;;27.60;98.00;;;;;;1835576;78;20496;-93
2021/06/26 13:46:06;;;;;;;;;;;27.60;98.30;;;;;;1835665;78;20303;-92
2021/06/26 13:48:36;;;;;;;;;;;27.50;97.50;;;;;;1835393;77;20224;-92
2021/06/26 13:51:06;;;;;;;;;;;27.50;97.50;;;;;;1829212;75;20313;-91
2021/06/26 13:53:35;;;;;;;;;;;27.50;98.50;;;;;;1830940;75;20166;-90
2021/06/26 13:56:05;;;;;;;;;;;27.50;99.60;;;;;;1838071;76;20097;-90
2021/06/26 13:58:46;;;;;;;;;;;27.50;99.30;;;;;;1825165;76;20096;-92
2021/06/26 14:01:29;;;;;;;;;;;27.50;99.00;;;;;;1815187;77;20209;-91
2021/06/26 14:03:58;;;;;;;;;;;27.50;99.00;;;;;;1757867;80;20102;-92
2021/06/26 14:06:28;;;;;;;;;;;27.50;99.00;;;;;;1776395;78;20237;-92
2021/06/26 14:08:58;;;;;;;;;;;27.50;98.60;;;;;;1787888;77;20239;-90
2021/06/26 14:11:29;;;;;;;;;;;27.40;97.90;;;;;;1779540;76;20223;-89
2021/06/26 14:13:58;;;;;;;;;;;27.40;98.10;;;;;;1785206;76;20092;-92
2021/06/26 14:16:28;;;;;;;;;;;27.40;98.80;;;;;;1782844;76;20165;-93
2021/06/26 14:18:58;;;;;;;;;;;27.40;98.10;;;;;;1794870;76;20159;-90
2021/06/26 14:21:28;;;;;;;;;;;27.40;98.30;;;;;;1782223;78;20177;-91
2021/06/26 14:23:58;;;;;;;;;;;27.40;98.90;;;;;;1779550;80;20263;-92
2021/06/26 14:26:28;;;;;;;;;;;27.30;98.90;;;;;;1779201;80;20167;-92
2021/06/26 14:28:58;;;;;;;;;;;27.30;99.30;;;;;;1775210;80;20223;-91
2021/06/26 14:31:27;;;;;;;;;;;27.30;99.10;;;;;;1780542;78;20239;-91
2021/06/26 14:33:57;;;;;;;;;;;27.30;99.30;;;;;;1777619;80;20204;-92
2021/06/26 14:36:27;;;;;;;;;;;27.20;99.40;;;;;;1768579;80;20211;-93